sensor_id;sensor_type;location;lat;lon;timestamp;P1;durP1;ratioP1;P2;durP2;ratioP2
77978;SDS011;67169;50.268;8.694;2023-06-26T00:01:45;6.43;;;4.30;;
77978;SDS011;67169;50.268;8.694;2023-06-26T00:04:11;5.07;;;4.32;;
77978;SDS011;67169;50.268;8.694;2023-06-26T00:06:41;5.35;;;4.40;;
77978;SDS011;67169;50.268;8.694;2023-06-26T00:09:08;6.38;;;4.35;;
77978;SDS011;67169;50.268;8.694;2023-06-26T00:11:34;5.22;;;4.00;;
77978;SDS011;67169;50.268;8.694;2023-06-26T00:14:01;6.68;;;4.32;;
77978;SDS011;67169;50.268;8.694;2023-06-26T00:16:27;4.88;;;4.05;;
77978;SDS011;67169;50.268;8.694;2023-06-26T00:18:56;5.40;;;3.90;;
77978;SDS011;67169;50.268;8.694;2023-06-26T00:21:23;8.40;;;4.72;;
77978;SDS011;67169;50.268;8.694;2023-06-26T00:23:51;6.35;;;4.43;;
77978;SDS011;67169;50.268;8.694;2023-06-26T00:26:18;9.35;;;4.45;;
77978;SDS011;67169;50.268;8.694;2023-06-26T00:28:44;6.78;;;4.60;;
77978;SDS011;67169;50.268;8.694;2023-06-26T00:31:11;5.95;;;4.35;;
77978;SDS011;67169;50.268;8.694;2023-06-26T00:33:37;5.95;;;4.28;;
77978;SDS011;67169;50.268;8.694;2023-06-26T00:36:04;6.13;;;4.60;;
77978;SDS011;67169;50.268;8.694;2023-06-26T00:38:30;5.25;;;4.03;;
77978;SDS011;67169;50.268;8.694;2023-06-26T00:40:58;6.10;;;4.18;;
77978;SDS011;67169;50.268;8.694;2023-06-26T00:43:25;6.53;;;4.38;;
77978;SDS011;67169;50.268;8.694;2023-06-26T00:45:51;6.32;;;4.57;;
77978;SDS011;67169;50.268;8.694;2023-06-26T00:48:18;8.65;;;4.80;;
77978;SDS011;67169;50.268;8.694;2023-06-26T00:50:45;5.57;;;3.78;;
77978;SDS011;67169;50.268;8.694;2023-06-26T00:53:11;6.40;;;4.28;;
77978;SDS011;67169;50.268;8.694;2023-06-26T00:55:38;7.55;;;4.18;;
77978;SDS011;67169;50.268;8.694;2023-06-26T00:58:06;5.95;;;4.38;;
77978;SDS011;67169;50.268;8.694;2023-06-26T01:00:33;5.70;;;4.35;;
77978;SDS011;67169;50.268;8.694;2023-06-26T01:02:59;8.40;;;4.28;;
77978;SDS011;67169;50.268;8.694;2023-06-26T01:05:26;8.18;;;4.97;;
77978;SDS011;67169;50.268;8.694;2023-06-26T01:07:53;6.65;;;4.75;;
77978;SDS011;67169;50.268;8.694;2023-06-26T01:12:47;7.72;;;4.53;;
77978;SDS011;67169;50.268;8.694;2023-06-26T01:15:15;7.78;;;4.05;;
77978;SDS011;67169;50.268;8.694;2023-06-26T01:17:42;7.85;;;4.57;;
77978;SDS011;67169;50.268;8.694;2023-06-26T01:20:12;8.80;;;4.78;;
77978;SDS011;67169;50.268;8.694;2023-06-26T01:22:43;5.70;;;4.00;;
77978;SDS011;67169;50.268;8.694;2023-06-26T01:25:17;7.68;;;4.55;;
77978;SDS011;67169;50.268;8.694;2023-06-26T01:27:52;8.27;;;4.90;;
77978;SDS011;67169;50.268;8.694;2023-06-26T01:30:21;7.28;;;4.78;;
77978;SDS011;67169;50.268;8.694;2023-06-26T01:32:48;6.70;;;4.88;;
77978;SDS011;67169;50.268;8.694;2023-06-26T01:37:43;5.75;;;4.10;;
77978;SDS011;67169;50.268;8.694;2023-06-26T01:40:10;7.43;;;4.47;;
77978;SDS011;67169;50.268;8.694;2023-06-26T01:42:37;5.80;;;4.60;;
77978;SDS011;67169;50.268;8.694;2023-06-26T01:45:06;6.45;;;4.90;;
77978;SDS011;67169;50.268;8.694;2023-06-26T01:47:38;6.05;;;4.45;;
77978;SDS011;67169;50.268;8.694;2023-06-26T01:50:10;7.40;;;4.55;;
77978;SDS011;67169;50.268;8.694;2023-06-26T01:52:41;6.60;;;4.55;;
77978;SDS011;67169;50.268;8.694;2023-06-26T01:55:12;5.85;;;4.35;;
77978;SDS011;67169;50.268;8.694;2023-06-26T01:57:44;6.25;;;4.72;;
77978;SDS011;67169;50.268;8.694;2023-06-26T02:00:14;5.68;;;4.50;;
77978;SDS011;67169;50.268;8.694;2023-06-26T02:02:44;7.15;;;5.45;;
77978;SDS011;67169;50.268;8.694;2023-06-26T02:05:11;7.93;;;5.13;;
77978;SDS011;67169;50.268;8.694;2023-06-26T02:10:05;8.18;;;5.05;;
77978;SDS011;67169;50.268;8.694;2023-06-26T02:12:32;8.63;;;5.13;;
77978;SDS011;67169;50.268;8.694;2023-06-26T02:14:59;8.27;;;5.50;;
77978;SDS011;67169;50.268;8.694;2023-06-26T02:17:27;6.47;;;4.68;;
77978;SDS011;67169;50.268;8.694;2023-06-26T02:19:53;7.82;;;5.43;;
77978;SDS011;67169;50.268;8.694;2023-06-26T02:22:20;7.68;;;5.53;;
77978;SDS011;67169;50.268;8.694;2023-06-26T02:24:46;8.70;;;5.25;;
77978;SDS011;67169;50.268;8.694;2023-06-26T02:27:13;7.35;;;4.93;;
77978;SDS011;67169;50.268;8.694;2023-06-26T02:29:40;9.63;;;6.00;;
77978;SDS011;67169;50.268;8.694;2023-06-26T02:32:07;7.90;;;5.32;;
77978;SDS011;67169;50.268;8.694;2023-06-26T02:34:35;7.68;;;5.40;;
77978;SDS011;67169;50.268;8.694;2023-06-26T02:37:02;6.65;;;5.22;;
77978;SDS011;67169;50.268;8.694;2023-06-26T02:39:31;9.20;;;5.53;;
77978;SDS011;67169;50.268;8.694;2023-06-26T02:41:58;7.68;;;5.45;;
77978;SDS011;67169;50.268;8.694;2023-06-26T02:44:24;9.60;;;5.50;;
77978;SDS011;67169;50.268;8.694;2023-06-26T02:46:52;8.93;;;5.57;;
77978;SDS011;67169;50.268;8.694;2023-06-26T02:49:18;9.40;;;6.15;;
77978;SDS011;67169;50.268;8.694;2023-06-26T02:51:46;7.28;;;5.40;;
77978;SDS011;67169;50.268;8.694;2023-06-26T02:54:13;7.50;;;4.85;;
77978;SDS011;67169;50.268;8.694;2023-06-26T02:56:39;11.20;;;5.05;;
77978;SDS011;67169;50.268;8.694;2023-06-26T02:59:06;8.15;;;5.80;;
77978;SDS011;67169;50.268;8.694;2023-06-26T03:01:32;9.35;;;6.72;;
77978;SDS011;67169;50.268;8.694;2023-06-26T03:03:59;7.43;;;4.80;;
77978;SDS011;67169;50.268;8.694;2023-06-26T03:06:26;9.10;;;5.05;;
77978;SDS011;67169;50.268;8.694;2023-06-26T03:08:54;9.48;;;5.97;;
77978;SDS011;67169;50.268;8.694;2023-06-26T03:11:21;7.95;;;5.57;;
77978;SDS011;67169;50.268;8.694;2023-06-26T03:13:47;12.35;;;6.03;;
77978;SDS011;67169;50.268;8.694;2023-06-26T03:16:14;9.77;;;5.90;;
77978;SDS011;67169;50.268;8.694;2023-06-26T03:18:40;9.85;;;5.82;;
77978;SDS011;67169;50.268;8.694;2023-06-26T03:21:07;7.47;;;5.00;;
77978;SDS011;67169;50.268;8.694;2023-06-26T03:23:35;8.77;;;5.60;;
77978;SDS011;67169;50.268;8.694;2023-06-26T03:26:03;7.65;;;5.30;;
77978;SDS011;67169;50.268;8.694;2023-06-26T03:28:29;8.68;;;5.70;;
77978;SDS011;67169;50.268;8.694;2023-06-26T03:30:57;8.02;;;5.22;;
77978;SDS011;67169;50.268;8.694;2023-06-26T03:33:24;8.00;;;5.93;;
77978;SDS011;67169;50.268;8.694;2023-06-26T03:35:51;7.60;;;5.75;;
77978;SDS011;67169;50.268;8.694;2023-06-26T03:38:17;10.38;;;5.60;;
77978;SDS011;67169;50.268;8.694;2023-06-26T03:40:44;7.32;;;5.30;;
77978;SDS011;67169;50.268;8.694;2023-06-26T03:43:12;8.60;;;5.40;;
77978;SDS011;67169;50.268;8.694;2023-06-26T03:45:38;7.15;;;5.55;;
77978;SDS011;67169;50.268;8.694;2023-06-26T03:48:05;9.55;;;6.07;;
77978;SDS011;67169;50.268;8.694;2023-06-26T03:50:33;9.88;;;5.57;;
77978;SDS011;67169;50.268;8.694;2023-06-26T03:52:59;8.82;;;5.68;;
77978;SDS011;67169;50.268;8.694;2023-06-26T03:55:26;11.45;;;6.57;;
77978;SDS011;67169;50.268;8.694;2023-06-26T03:57:52;8.48;;;5.50;;
77978;SDS011;67169;50.268;8.694;2023-06-26T04:00:20;10.13;;;6.35;;
77978;SDS011;67169;50.268;8.694;2023-06-26T04:02:47;10.80;;;6.72;;
77978;SDS011;67169;50.268;8.694;2023-06-26T04:05:14;9.25;;;5.40;;
77978;SDS011;67169;50.268;8.694;2023-06-26T04:07:42;8.30;;;6.55;;
77978;SDS011;67169;50.268;8.694;2023-06-26T04:10:09;10.70;;;5.85;;
77978;SDS011;67169;50.268;8.694;2023-06-26T04:12:35;8.65;;;6.90;;
77978;SDS011;67169;50.268;8.694;2023-06-26T04:15:02;8.98;;;5.55;;
77978;SDS011;67169;50.268;8.694;2023-06-26T04:17:30;10.18;;;5.45;;
77978;SDS011;67169;50.268;8.694;2023-06-26T04:19:57;10.90;;;5.72;;
77978;SDS011;67169;50.268;8.694;2023-06-26T04:22:23;10.25;;;5.57;;
77978;SDS011;67169;50.268;8.694;2023-06-26T04:24:50;13.75;;;6.32;;
77978;SDS011;67169;50.268;8.694;2023-06-26T04:27:17;11.25;;;5.70;;
77978;SDS011;67169;50.268;8.694;2023-06-26T04:29:44;7.22;;;5.63;;
77978;SDS011;67169;50.268;8.694;2023-06-26T04:32:10;10.23;;;6.22;;
77978;SDS011;67169;50.268;8.694;2023-06-26T04:34:38;10.90;;;6.22;;
77978;SDS011;67169;50.268;8.694;2023-06-26T04:37:09;8.80;;;5.30;;
77978;SDS011;67169;50.268;8.694;2023-06-26T04:39:35;8.32;;;5.28;;
77978;SDS011;67169;50.268;8.694;2023-06-26T04:42:03;7.95;;;5.60;;
77978;SDS011;67169;50.268;8.694;2023-06-26T04:44:30;9.30;;;5.63;;
77978;SDS011;67169;50.268;8.694;2023-06-26T04:46:57;8.45;;;6.00;;
77978;SDS011;67169;50.268;8.694;2023-06-26T04:49:23;9.93;;;5.82;;
77978;SDS011;67169;50.268;8.694;2023-06-26T04:51:51;9.23;;;5.82;;
77978;SDS011;67169;50.268;8.694;2023-06-26T04:54:18;8.15;;;5.28;;
77978;SDS011;67169;50.268;8.694;2023-06-26T04:56:44;9.23;;;5.88;;
77978;SDS011;67169;50.268;8.694;2023-06-26T04:59:12;8.18;;;6.10;;
77978;SDS011;67169;50.268;8.694;2023-06-26T05:04:06;8.10;;;5.38;;
77978;SDS011;67169;50.268;8.694;2023-06-26T05:06:32;11.75;;;6.57;;
77978;SDS011;67169;50.268;8.694;2023-06-26T05:09:00;9.20;;;5.80;;
77978;SDS011;67169;50.268;8.694;2023-06-26T05:11:27;6.45;;;5.47;;
77978;SDS011;67169;50.268;8.694;2023-06-26T05:13:54;8.65;;;6.32;;
77978;SDS011;67169;50.268;8.694;2023-06-26T05:16:20;8.90;;;6.57;;
77978;SDS011;67169;50.268;8.694;2023-06-26T05:18:47;8.10;;;6.28;;
77978;SDS011;67169;50.268;8.694;2023-06-26T05:21:13;8.60;;;7.03;;
77978;SDS011;67169;50.268;8.694;2023-06-26T05:23:42;8.48;;;6.82;;
77978;SDS011;67169;50.268;8.694;2023-06-26T05:26:11;8.55;;;6.65;;
77978;SDS011;67169;50.268;8.694;2023-06-26T05:28:38;8.25;;;6.32;;
77978;SDS011;67169;50.268;8.694;2023-06-26T05:31:05;11.30;;;7.32;;
77978;SDS011;67169;50.268;8.694;2023-06-26T05:33:33;10.73;;;7.10;;
77978;SDS011;67169;50.268;8.694;2023-06-26T05:36:01;8.95;;;6.05;;
77978;SDS011;67169;50.268;8.694;2023-06-26T05:38:31;12.18;;;8.27;;
77978;SDS011;67169;50.268;8.694;2023-06-26T05:40:58;11.77;;;7.13;;
77978;SDS011;67169;50.268;8.694;2023-06-26T05:43:26;7.97;;;6.90;;
77978;SDS011;67169;50.268;8.694;2023-06-26T05:45:53;12.88;;;8.20;;
77978;SDS011;67169;50.268;8.694;2023-06-26T05:48:19;8.32;;;7.28;;
77978;SDS011;67169;50.268;8.694;2023-06-26T05:50:46;8.95;;;6.45;;
77978;SDS011;67169;50.268;8.694;2023-06-26T05:53:13;8.52;;;6.75;;
77978;SDS011;67169;50.268;8.694;2023-06-26T05:55:40;9.50;;;7.68;;
77978;SDS011;67169;50.268;8.694;2023-06-26T05:58:08;7.70;;;5.97;;
77978;SDS011;67169;50.268;8.694;2023-06-26T06:00:38;9.95;;;6.82;;
77978;SDS011;67169;50.268;8.694;2023-06-26T06:03:05;9.52;;;7.00;;
77978;SDS011;67169;50.268;8.694;2023-06-26T06:05:31;8.73;;;7.05;;
77978;SDS011;67169;50.268;8.694;2023-06-26T06:07:58;9.48;;;7.10;;
77978;SDS011;67169;50.268;8.694;2023-06-26T06:10:24;11.52;;;7.53;;
77978;SDS011;67169;50.268;8.694;2023-06-26T06:12:51;10.77;;;7.15;;
77978;SDS011;67169;50.268;8.694;2023-06-26T06:15:19;10.18;;;7.15;;
77978;SDS011;67169;50.268;8.694;2023-06-26T06:17:47;8.18;;;6.85;;
77978;SDS011;67169;50.268;8.694;2023-06-26T06:20:14;7.88;;;6.30;;
77978;SDS011;67169;50.268;8.694;2023-06-26T06:22:40;9.13;;;7.50;;
77978;SDS011;67169;50.268;8.694;2023-06-26T06:25:07;9.43;;;6.30;;
77978;SDS011;67169;50.268;8.694;2023-06-26T06:27:34;10.98;;;7.38;;
77978;SDS011;67169;50.268;8.694;2023-06-26T06:30:01;9.20;;;6.65;;
77978;SDS011;67169;50.268;8.694;2023-06-26T06:32:27;11.77;;;7.65;;
77978;SDS011;67169;50.268;8.694;2023-06-26T06:34:55;8.70;;;6.22;;
77978;SDS011;67169;50.268;8.694;2023-06-26T06:37:22;10.82;;;6.95;;
77978;SDS011;67169;50.268;8.694;2023-06-26T06:39:48;11.35;;;7.60;;
77978;SDS011;67169;50.268;8.694;2023-06-26T06:42:15;8.15;;;6.63;;
77978;SDS011;67169;50.268;8.694;2023-06-26T06:44:42;9.57;;;6.40;;
77978;SDS011;67169;50.268;8.694;2023-06-26T06:47:08;8.00;;;7.20;;
77978;SDS011;67169;50.268;8.694;2023-06-26T06:49:35;9.57;;;6.93;;
77978;SDS011;67169;50.268;8.694;2023-06-26T06:52:03;10.13;;;6.97;;
77978;SDS011;67169;50.268;8.694;2023-06-26T06:54:30;8.05;;;7.13;;
77978;SDS011;67169;50.268;8.694;2023-06-26T06:56:56;13.15;;;5.97;;
77978;SDS011;67169;50.268;8.694;2023-06-26T06:59:23;10.23;;;5.82;;
77978;SDS011;67169;50.268;8.694;2023-06-26T07:01:49;10.57;;;5.15;;
77978;SDS011;67169;50.268;8.694;2023-06-26T07:04:16;6.10;;;5.28;;
77978;SDS011;67169;50.268;8.694;2023-06-26T07:06:42;7.38;;;5.40;;
77978;SDS011;67169;50.268;8.694;2023-06-26T07:09:10;7.40;;;5.13;;
77978;SDS011;67169;50.268;8.694;2023-06-26T07:11:37;6.90;;;4.68;;
77978;SDS011;67169;50.268;8.694;2023-06-26T07:14:03;8.18;;;4.43;;
77978;SDS011;67169;50.268;8.694;2023-06-26T07:16:30;7.25;;;5.10;;
77978;SDS011;67169;50.268;8.694;2023-06-26T07:18:57;7.18;;;4.75;;
77978;SDS011;67169;50.268;8.694;2023-06-26T07:21:23;7.68;;;4.85;;
77978;SDS011;67169;50.268;8.694;2023-06-26T07:23:50;6.05;;;4.75;;
77978;SDS011;67169;50.268;8.694;2023-06-26T07:26:18;5.25;;;4.28;;
77978;SDS011;67169;50.268;8.694;2023-06-26T07:28:44;7.70;;;4.80;;
77978;SDS011;67169;50.268;8.694;2023-06-26T07:31:11;5.78;;;4.32;;
77978;SDS011;67169;50.268;8.694;2023-06-26T07:33:37;6.45;;;4.70;;
77978;SDS011;67169;50.268;8.694;2023-06-26T07:36:04;10.60;;;5.20;;
77978;SDS011;67169;50.268;8.694;2023-06-26T07:38:31;5.38;;;3.90;;
77978;SDS011;67169;50.268;8.694;2023-06-26T07:40:57;5.10;;;4.28;;
77978;SDS011;67169;50.268;8.694;2023-06-26T07:43:25;5.95;;;4.47;;
77978;SDS011;67169;50.268;8.694;2023-06-26T07:45:52;5.35;;;4.00;;
77978;SDS011;67169;50.268;8.694;2023-06-26T07:50:45;6.93;;;4.20;;
77978;SDS011;67169;50.268;8.694;2023-06-26T07:53:12;7.68;;;4.50;;
77978;SDS011;67169;50.268;8.694;2023-06-26T07:55:38;5.60;;;4.03;;
77978;SDS011;67169;50.268;8.694;2023-06-26T07:58:05;6.22;;;4.47;;
77978;SDS011;67169;50.268;8.694;2023-06-26T08:00:33;5.82;;;4.38;;
77978;SDS011;67169;50.268;8.694;2023-06-26T08:02:59;7.38;;;4.47;;
77978;SDS011;67169;50.268;8.694;2023-06-26T08:05:26;6.40;;;4.15;;
77978;SDS011;67169;50.268;8.694;2023-06-26T08:07:53;8.18;;;4.82;;
77978;SDS011;67169;50.268;8.694;2023-06-26T08:10:19;5.10;;;4.10;;
77978;SDS011;67169;50.268;8.694;2023-06-26T08:12:46;5.28;;;3.97;;
77978;SDS011;67169;50.268;8.694;2023-06-26T08:15:15;5.93;;;4.50;;
77978;SDS011;67169;50.268;8.694;2023-06-26T08:17:43;5.65;;;4.25;;
77978;SDS011;67169;50.268;8.694;2023-06-26T08:20:10;6.22;;;4.53;;
77978;SDS011;67169;50.268;8.694;2023-06-26T08:22:37;7.38;;;4.75;;
77978;SDS011;67169;50.268;8.694;2023-06-26T08:25:04;5.85;;;4.35;;
77978;SDS011;67169;50.268;8.694;2023-06-26T08:27:31;6.68;;;3.78;;
77978;SDS011;67169;50.268;8.694;2023-06-26T08:29:58;8.82;;;4.53;;
77978;SDS011;67169;50.268;8.694;2023-06-26T08:34:53;8.02;;;4.53;;
77978;SDS011;67169;50.268;8.694;2023-06-26T08:37:19;5.68;;;4.65;;
77978;SDS011;67169;50.268;8.694;2023-06-26T08:39:46;5.93;;;4.25;;
77978;SDS011;67169;50.268;8.694;2023-06-26T08:42:14;6.47;;;4.35;;
77978;SDS011;67169;50.268;8.694;2023-06-26T08:44:40;8.07;;;4.57;;
77978;SDS011;67169;50.268;8.694;2023-06-26T08:47:07;6.53;;;4.75;;
77978;SDS011;67169;50.268;8.694;2023-06-26T08:49:37;5.20;;;3.60;;
77978;SDS011;67169;50.268;8.694;2023-06-26T08:52:14;5.10;;;3.63;;
77978;SDS011;67169;50.268;8.694;2023-06-26T08:54:45;5.43;;;3.60;;
77978;SDS011;67169;50.268;8.694;2023-06-26T08:57:14;7.22;;;4.68;;
77978;SDS011;67169;50.268;8.694;2023-06-26T08:59:44;6.53;;;4.05;;
77978;SDS011;67169;50.268;8.694;2023-06-26T09:02:12;5.80;;;4.03;;
77978;SDS011;67169;50.268;8.694;2023-06-26T09:04:39;5.10;;;3.58;;
77978;SDS011;67169;50.268;8.694;2023-06-26T09:07:06;5.63;;;3.80;;
77978;SDS011;67169;50.268;8.694;2023-06-26T09:09:35;4.93;;;3.58;;
77978;SDS011;67169;50.268;8.694;2023-06-26T09:12:03;4.93;;;3.75;;
77978;SDS011;67169;50.268;8.694;2023-06-26T09:14:30;4.72;;;3.88;;
77978;SDS011;67169;50.268;8.694;2023-06-26T09:16:57;4.95;;;3.85;;
77978;SDS011;67169;50.268;8.694;2023-06-26T09:19:23;5.88;;;4.13;;
77978;SDS011;67169;50.268;8.694;2023-06-26T09:21:50;5.53;;;3.65;;
77978;SDS011;67169;50.268;8.694;2023-06-26T09:24:17;5.60;;;4.20;;
77978;SDS011;67169;50.268;8.694;2023-06-26T09:26:45;4.93;;;3.72;;
77978;SDS011;67169;50.268;8.694;2023-06-26T09:29:12;4.65;;;4.05;;
77978;SDS011;67169;50.268;8.694;2023-06-26T09:31:40;6.13;;;3.63;;
77978;SDS011;67169;50.268;8.694;2023-06-26T09:34:08;4.43;;;3.90;;
77978;SDS011;67169;50.268;8.694;2023-06-26T09:36:34;4.88;;;4.25;;
77978;SDS011;67169;50.268;8.694;2023-06-26T09:39:01;4.82;;;4.13;;
77978;SDS011;67169;50.268;8.694;2023-06-26T09:41:29;4.63;;;3.50;;
77978;SDS011;67169;50.268;8.694;2023-06-26T09:43:58;4.88;;;3.80;;
77978;SDS011;67169;50.268;8.694;2023-06-26T09:46:28;5.75;;;3.92;;
77978;SDS011;67169;50.268;8.694;2023-06-26T09:49:00;4.45;;;3.38;;
77978;SDS011;67169;50.268;8.694;2023-06-26T09:51:28;5.82;;;3.85;;
77978;SDS011;67169;50.268;8.694;2023-06-26T09:53:55;5.78;;;3.90;;
77978;SDS011;67169;50.268;8.694;2023-06-26T09:56:22;5.82;;;3.88;;
77978;SDS011;67169;50.268;8.694;2023-06-26T09:58:49;4.82;;;3.58;;
77978;SDS011;67169;50.268;8.694;2023-06-26T10:01:18;4.85;;;4.00;;
77978;SDS011;67169;50.268;8.694;2023-06-26T10:03:45;5.65;;;3.65;;
77978;SDS011;67169;50.268;8.694;2023-06-26T10:06:11;4.63;;;3.67;;
77978;SDS011;67169;50.268;8.694;2023-06-26T10:08:39;7.40;;;3.65;;
77978;SDS011;67169;50.268;8.694;2023-06-26T10:11:06;4.57;;;3.80;;
77978;SDS011;67169;50.268;8.694;2023-06-26T10:13:38;6.30;;;3.80;;
77978;SDS011;67169;50.268;8.694;2023-06-26T10:16:10;4.47;;;4.07;;
77978;SDS011;67169;50.268;8.694;2023-06-26T10:18:39;6.18;;;4.32;;
77978;SDS011;67169;50.268;8.694;2023-06-26T10:21:06;6.65;;;3.85;;
77978;SDS011;67169;50.268;8.694;2023-06-26T10:23:35;6.40;;;4.40;;
77978;SDS011;67169;50.268;8.694;2023-06-26T10:26:05;4.30;;;3.47;;
77978;SDS011;67169;50.268;8.694;2023-06-26T10:28:33;6.82;;;4.35;;
77978;SDS011;67169;50.268;8.694;2023-06-26T10:31:00;6.75;;;3.85;;
77978;SDS011;67169;50.268;8.694;2023-06-26T10:33:30;4.28;;;3.85;;
77978;SDS011;67169;50.268;8.694;2023-06-26T10:38:52;5.28;;;4.10;;
77978;SDS011;67169;50.268;8.694;2023-06-26T10:41:20;4.97;;;4.22;;
77978;SDS011;67169;50.268;8.694;2023-06-26T10:43:49;5.70;;;4.30;;
77978;SDS011;67169;50.268;8.694;2023-06-26T10:46:17;5.70;;;3.78;;
77978;SDS011;67169;50.268;8.694;2023-06-26T10:48:55;4.90;;;3.58;;
77978;SDS011;67169;50.268;8.694;2023-06-26T10:51:22;5.95;;;4.05;;
77978;SDS011;67169;50.268;8.694;2023-06-26T10:53:54;6.47;;;3.90;;
77978;SDS011;67169;50.268;8.694;2023-06-26T10:56:21;5.70;;;3.90;;
77978;SDS011;67169;50.268;8.694;2023-06-26T10:59:14;6.40;;;3.90;;
77978;SDS011;67169;50.268;8.694;2023-06-26T11:01:42;5.63;;;3.53;;
77978;SDS011;67169;50.268;8.694;2023-06-26T11:04:09;4.97;;;3.88;;
77978;SDS011;67169;50.268;8.694;2023-06-26T11:06:37;5.95;;;3.83;;
77978;SDS011;67169;50.268;8.694;2023-06-26T11:09:09;5.18;;;3.70;;
77978;SDS011;67169;50.268;8.694;2023-06-26T11:14:29;5.60;;;3.83;;
77978;SDS011;67169;50.268;8.694;2023-06-26T11:16:57;5.35;;;3.47;;
77978;SDS011;67169;50.268;8.694;2023-06-26T11:19:25;5.72;;;4.10;;
77978;SDS011;67169;50.268;8.694;2023-06-26T11:21:57;6.47;;;3.90;;
77978;SDS011;67169;50.268;8.694;2023-06-26T11:24:26;4.65;;;3.75;;
77978;SDS011;67169;50.268;8.694;2023-06-26T11:26:59;7.45;;;3.42;;
77978;SDS011;67169;50.268;8.694;2023-06-26T11:29:27;5.85;;;3.35;;
77978;SDS011;67169;50.268;8.694;2023-06-26T11:31:58;5.72;;;3.03;;
77978;SDS011;67169;50.268;8.694;2023-06-26T11:34:28;5.07;;;3.28;;
77978;SDS011;67169;50.268;8.694;2023-06-26T11:36:56;5.40;;;3.00;;
77978;SDS011;67169;50.268;8.694;2023-06-26T11:39:23;4.03;;;3.40;;
77978;SDS011;67169;50.268;8.694;2023-06-26T11:44:18;4.05;;;2.97;;
77978;SDS011;67169;50.268;8.694;2023-06-26T11:46:45;6.43;;;3.30;;
77978;SDS011;67169;50.268;8.694;2023-06-26T11:49:14;5.43;;;3.70;;
77978;SDS011;67169;50.268;8.694;2023-06-26T11:51:42;6.05;;;3.42;;
77978;SDS011;67169;50.268;8.694;2023-06-26T11:54:09;5.40;;;3.60;;
77978;SDS011;67169;50.268;8.694;2023-06-26T11:56:36;3.80;;;3.38;;
77978;SDS011;67169;50.268;8.694;2023-06-26T11:59:05;5.80;;;3.20;;
77978;SDS011;67169;50.268;8.694;2023-06-26T12:01:34;4.88;;;3.38;;
77978;SDS011;67169;50.268;8.694;2023-06-26T12:04:02;4.15;;;3.42;;
77978;SDS011;67169;50.268;8.694;2023-06-26T12:06:30;4.78;;;3.08;;
77978;SDS011;67169;50.268;8.694;2023-06-26T12:09:00;6.88;;;3.60;;
77978;SDS011;67169;50.268;8.694;2023-06-26T12:11:28;4.53;;;3.28;;
77978;SDS011;67169;50.268;8.694;2023-06-26T12:13:56;6.95;;;3.30;;
77978;SDS011;67169;50.268;8.694;2023-06-26T12:16:24;6.18;;;3.40;;
77978;SDS011;67169;50.268;8.694;2023-06-26T12:18:51;6.93;;;3.45;;
77978;SDS011;67169;50.268;8.694;2023-06-26T12:23:57;4.93;;;3.55;;
77978;SDS011;67169;50.268;8.694;2023-06-26T12:26:25;7.20;;;3.83;;
77978;SDS011;67169;50.268;8.694;2023-06-26T12:28:52;6.80;;;3.85;;
77978;SDS011;67169;50.268;8.694;2023-06-26T12:31:20;7.82;;;3.58;;
77978;SDS011;67169;50.268;8.694;2023-06-26T12:33:49;5.70;;;3.67;;
77978;SDS011;67169;50.268;8.694;2023-06-26T12:36:17;6.57;;;3.92;;
77978;SDS011;67169;50.268;8.694;2023-06-26T12:38:44;5.88;;;3.75;;
77978;SDS011;67169;50.268;8.694;2023-06-26T12:41:12;5.63;;;3.60;;
77978;SDS011;67169;50.268;8.694;2023-06-26T12:43:39;7.18;;;3.88;;
77978;SDS011;67169;50.268;8.694;2023-06-26T12:46:06;9.07;;;4.45;;
77978;SDS011;67169;50.268;8.694;2023-06-26T12:48:37;6.20;;;3.30;;
77978;SDS011;67169;50.268;8.694;2023-06-26T12:51:10;6.55;;;3.33;;
77978;SDS011;67169;50.268;8.694;2023-06-26T12:53:37;8.63;;;3.60;;
77978;SDS011;67169;50.268;8.694;2023-06-26T12:56:05;4.70;;;3.53;;
77978;SDS011;67169;50.268;8.694;2023-06-26T12:58:32;5.28;;;3.08;;
77978;SDS011;67169;50.268;8.694;2023-06-26T13:00:59;7.68;;;3.38;;
77978;SDS011;67169;50.268;8.694;2023-06-26T13:03:25;6.85;;;3.53;;
77978;SDS011;67169;50.268;8.694;2023-06-26T13:05:52;6.15;;;3.85;;
77978;SDS011;67169;50.268;8.694;2023-06-26T13:08:20;5.88;;;3.15;;
77978;SDS011;67169;50.268;8.694;2023-06-26T13:10:46;5.70;;;3.20;;
77978;SDS011;67169;50.268;8.694;2023-06-26T13:13:13;5.35;;;3.42;;
77978;SDS011;67169;50.268;8.694;2023-06-26T13:15:39;4.60;;;3.03;;
77978;SDS011;67169;50.268;8.694;2023-06-26T13:18:06;6.20;;;2.95;;
77978;SDS011;67169;50.268;8.694;2023-06-26T13:20:32;5.75;;;3.20;;
77978;SDS011;67169;50.268;8.694;2023-06-26T13:22:59;7.55;;;3.00;;
77978;SDS011;67169;50.268;8.694;2023-06-26T13:25:27;5.97;;;3.22;;
77978;SDS011;67169;50.268;8.694;2023-06-26T13:27:53;4.28;;;3.10;;
77978;SDS011;67169;50.268;8.694;2023-06-26T13:30:20;4.95;;;2.72;;
77978;SDS011;67169;50.268;8.694;2023-06-26T13:32:47;3.83;;;2.63;;
77978;SDS011;67169;50.268;8.694;2023-06-26T13:35:14;6.88;;;2.80;;
77978;SDS011;67169;50.268;8.694;2023-06-26T13:37:40;6.15;;;2.88;;
77978;SDS011;67169;50.268;8.694;2023-06-26T13:40:08;3.80;;;2.45;;
77978;SDS011;67169;50.268;8.694;2023-06-26T13:42:36;3.47;;;2.15;;
77978;SDS011;67169;50.268;8.694;2023-06-26T13:45:03;5.07;;;2.28;;
77978;SDS011;67169;50.268;8.694;2023-06-26T13:47:30;4.60;;;2.30;;
77978;SDS011;67169;50.268;8.694;2023-06-26T13:49:59;5.40;;;2.53;;
77978;SDS011;67169;50.268;8.694;2023-06-26T13:52:25;3.35;;;2.00;;
77978;SDS011;67169;50.268;8.694;2023-06-26T13:54:52;4.95;;;2.20;;
77978;SDS011;67169;50.268;8.694;2023-06-26T13:57:19;3.38;;;2.17;;
77978;SDS011;67169;50.268;8.694;2023-06-26T13:59:48;4.97;;;2.28;;
77978;SDS011;67169;50.268;8.694;2023-06-26T14:02:15;4.05;;;1.88;;
77978;SDS011;67169;50.268;8.694;2023-06-26T14:04:41;4.45;;;2.10;;
77978;SDS011;67169;50.268;8.694;2023-06-26T14:07:08;4.28;;;1.60;;
77978;SDS011;67169;50.268;8.694;2023-06-26T14:09:35;4.30;;;1.60;;
77978;SDS011;67169;50.268;8.694;2023-06-26T14:12:02;4.22;;;1.70;;
77978;SDS011;67169;50.268;8.694;2023-06-26T14:16:56;3.90;;;2.05;;
77978;SDS011;67169;50.268;8.694;2023-06-26T14:19:23;3.17;;;1.85;;
77978;SDS011;67169;50.268;8.694;2023-06-26T14:21:50;3.38;;;1.75;;
77978;SDS011;67169;50.268;8.694;2023-06-26T14:24:17;3.45;;;1.77;;
77978;SDS011;67169;50.268;8.694;2023-06-26T14:26:44;3.67;;;1.48;;
77978;SDS011;67169;50.268;8.694;2023-06-26T14:29:10;2.35;;;1.17;;
77978;SDS011;67169;50.268;8.694;2023-06-26T14:31:38;3.65;;;1.60;;
77978;SDS011;67169;50.268;8.694;2023-06-26T14:34:05;5.18;;;1.65;;
77978;SDS011;67169;50.268;8.694;2023-06-26T14:36:32;2.50;;;1.20;;
77978;SDS011;67169;50.268;8.694;2023-06-26T14:38:59;3.88;;;1.58;;
77978;SDS011;67169;50.268;8.694;2023-06-26T14:41:25;3.53;;;1.40;;
77978;SDS011;67169;50.268;8.694;2023-06-26T14:43:52;3.63;;;1.50;;
77978;SDS011;67169;50.268;8.694;2023-06-26T14:46:19;2.95;;;1.50;;
77978;SDS011;67169;50.268;8.694;2023-06-26T14:48:46;6.57;;;1.50;;
77978;SDS011;67169;50.268;8.694;2023-06-26T14:51:14;3.58;;;1.25;;
77978;SDS011;67169;50.268;8.694;2023-06-26T14:53:40;3.88;;;1.70;;
77978;SDS011;67169;50.268;8.694;2023-06-26T14:56:07;4.63;;;1.50;;
77978;SDS011;67169;50.268;8.694;2023-06-26T14:58:33;5.22;;;1.45;;
77978;SDS011;67169;50.268;8.694;2023-06-26T15:01:00;3.70;;;1.15;;
77978;SDS011;67169;50.268;8.694;2023-06-26T15:03:28;5.85;;;1.50;;
77978;SDS011;67169;50.268;8.694;2023-06-26T15:05:54;3.90;;;1.10;;
77978;SDS011;67169;50.268;8.694;2023-06-26T15:08:22;3.17;;;1.58;;
77978;SDS011;67169;50.268;8.694;2023-06-26T15:10:49;2.28;;;1.25;;
77978;SDS011;67169;50.268;8.694;2023-06-26T15:13:15;3.50;;;1.17;;
77978;SDS011;67169;50.268;8.694;2023-06-26T15:15:42;4.32;;;1.40;;